Time;durP1;ratioP1;P1;durP2;ratioP2;P2;SDS_P1;SDS_P2;PMS_P1;PMS_P2;Temp;Humidity;BMP_temperature;BMP_pressure;BME280_temperature;BME280_humidity;BME280_pressure;Samples;Min_cycle;Max_cycle;Signal;HPM_P1;HPM_P2
2023/12/20 00:01:29;;;;;;;2.10;0.80;;;5.40;1.00;;;;;;4980527;28;20534;-89
2023/12/20 00:03:57;;;;;;;1.60;0.60;;;5.40;1.00;;;;;;4960307;28;20053;-90
2023/12/20 00:06:24;;;;;;;1.08;0.50;;;5.40;63.20;;;;;;4978756;28;20542;-90
2023/12/20 00:08:53;;;;;;;1.35;0.50;;;5.40;87.00;;;;;;4976187;28;20125;-88
2023/12/20 00:11:23;;;;;;;2.08;1.15;;;5.40;95.10;;;;;;4972636;28;20054;-86
2023/12/20 00:13:52;;;;;;;1.30;0.73;;;5.40;70.90;;;;;;4986001;28;20047;-88
2023/12/20 00:16:22;;;;;;;2.25;0.80;;;5.40;85.50;;;;;;4942455;28;20372;-88
2023/12/20 00:18:59;;;;;;;1.27;0.60;;;5.50;44.20;;;;;;4941735;28;20061;-87
2023/12/20 00:21:27;;;;;;;1.55;0.52;;;5.50;41.30;;;;;;4975170;28;20782;-88
2023/12/20 00:23:55;;;;;;;1.05;0.55;;;5.50;25.70;;;;;;4960097;28;20046;-88
2023/12/20 00:26:25;;;;;;;2.15;0.65;;;5.50;14.00;;;;;;4972180;28;20051;-88
2023/12/20 00:28:52;;;;;;;1.75;0.70;;;5.50;1.00;;;;;;4974469;28;20042;-86
2023/12/20 00:31:20;;;;;;;1.15;0.70;;;5.50;1.00;;;;;;4985642;28;20120;-87
2023/12/20 00:33:47;;;;;;;1.48;0.80;;;5.50;1.00;;;;;;4991883;28;20137;-88
2023/12/20 00:36:15;;;;;;;1.70;0.88;;;5.50;1.00;;;;;;4973742;28;20046;-88
2023/12/20 00:38:44;;;;;;;1.65;0.95;;;5.50;1.00;;;;;;4975025;28;20121;-87
2023/12/20 00:41:11;;;;;;;1.15;0.70;;;5.50;8.90;;;;;;4971125;28;20077;-87
2023/12/20 00:43:38;;;;;;;1.00;0.73;;;5.50;72.70;;;;;;4973700;28;20073;-88
2023/12/20 00:46:06;;;;;;;1.30;0.70;;;5.40;73.00;;;;;;4990436;28;20050;-87
2023/12/20 00:48:33;;;;;;;1.40;0.85;;;5.40;62.60;;;;;;4977673;28;20470;-87
2023/12/20 00:51:01;;;;;;;0.90;0.60;;;5.50;52.80;;;;;;4983610;28;20053;-87
2023/12/20 00:53:27;;;;;;;4.03;1.10;;;5.50;44.90;;;;;;4980293;28;20050;-87
2023/12/20 00:55:58;;;;;;;2.17;0.80;;;5.50;1.00;;;;;;4978531;28;20094;-86
2023/12/20 00:58:27;;;;;;;2.00;0.98;;;5.50;1.00;;;;;;4957632;28;20153;-87
2023/12/20 01:01:01;;;;;;;1.77;0.90;;;5.50;1.00;;;;;;4972886;28;20057;-87
2023/12/20 01:03:30;;;;;;;0.82;0.73;;;5.60;1.00;;;;;;4951770;28;20442;-87
2023/12/20 01:05:58;;;;;;;1.33;0.60;;;5.60;99.90;;;;;;4951685;28;20054;-87
2023/12/20 01:08:27;;;;;;;1.38;0.80;;;5.60;99.90;;;;;;4970737;28;20043;-88
2023/12/20 01:10:59;;;;;;;1.42;0.60;;;5.60;1.00;;;;;;4954089;28;20058;-87
2023/12/20 01:13:26;;;;;;;2.08;0.82;;;5.60;1.00;;;;;;4975406;28;20097;-87
2023/12/20 01:15:52;;;;;;;2.30;0.88;;;5.60;1.00;;;;;;4974211;28;20157;-87
2023/12/20 01:18:19;;;;;;;1.30;0.75;;;5.60;99.90;;;;;;4968909;28;20553;-87
2023/12/20 01:20:48;;;;;;;5.05;1.08;;;5.60;99.90;;;;;;4971853;28;20124;-88
2023/12/20 01:23:15;;;;;;;1.92;0.90;;;5.60;99.90;;;;;;4955066;28;20050;-86
2023/12/20 01:25:43;;;;;;;2.28;1.00;;;5.60;99.90;;;;;;4970197;28;20129;-88
2023/12/20 01:28:12;;;;;;;2.15;0.82;;;5.60;99.90;;;;;;4969851;28;20125;-88
2023/12/20 01:30:39;;;;;;;1.17;0.65;;;5.60;99.90;;;;;;4970177;28;20050;-88
2023/12/20 01:33:18;;;;;;;1.58;0.75;;;5.60;99.90;;;;;;4952636;28;20065;-89
2023/12/20 01:35:49;;;;;;;2.83;0.60;;;5.60;99.90;;;;;;4953827;28;20053;-88
2023/12/20 01:38:22;;;;;;;2.72;0.98;;;5.60;99.90;;;;;;4937735;28;20051;-87
2023/12/20 01:40:50;;;;;;;2.83;0.80;;;5.60;99.90;;;;;;4954074;28;20502;-88
2023/12/20 01:43:23;;;;;;;1.42;0.52;;;5.70;99.90;;;;;;4939666;28;20077;-89
2023/12/20 01:45:58;;;;;;;2.33;0.85;;;5.70;99.90;;;;;;4970171;28;20061;-88
2023/12/20 01:48:25;;;;;;;1.65;0.60;;;5.70;99.90;;;;;;4953319;28;20089;-87
2023/12/20 01:50:55;;;;;;;3.00;0.80;;;5.70;99.90;;;;;;4960632;28;20042;-87
2023/12/20 01:53:24;;;;;;;1.77;0.80;;;5.80;99.90;;;;;;4950383;28;20051;-87
2023/12/20 01:55:52;;;;;;;1.95;0.60;;;5.80;99.90;;;;;;4977405;28;20084;-96
2023/12/20 01:58:27;;;;;;;1.45;0.68;;;5.80;99.90;;;;;;4972957;28;20058;-87
2023/12/20 02:00:58;;;;;;;2.08;0.98;;;5.80;99.90;;;;;;4971972;28;20051;-87
2023/12/20 02:03:32;;;;;;;3.75;1.60;;;5.80;97.10;;;;;;4987558;28;20047;-87
2023/12/20 02:06:04;;;;;;;1.98;0.70;;;5.80;99.60;;;;;;4956874;28;20046;-88
2023/12/20 02:08:31;;;;;;;1.98;1.00;;;5.80;86.30;;;;;;4969385;28;20592;-88
2023/12/20 02:11:00;;;;;;;1.50;0.95;;;5.80;96.70;;;;;;4976573;28;20046;-87
2023/12/20 02:13:27;;;;;;;1.75;0.70;;;5.80;99.90;;;;;;4980591;28;20202;-87
2023/12/20 02:15:57;;;;;;;1.38;0.60;;;5.80;97.70;;;;;;4967391;28;20073;-87
2023/12/20 02:18:25;;;;;;;1.85;1.02;;;5.80;96.10;;;;;;4971138;28;20061;-88
2023/12/20 02:20:52;;;;;;;1.58;0.60;;;5.80;99.90;;;;;;4981589;28;20058;-87
2023/12/20 02:23:19;;;;;;;1.10;0.63;;;5.80;99.90;;;;;;4968576;28;20079;-87
2023/12/20 02:25:45;;;;;;;1.58;0.60;;;5.80;99.90;;;;;;4965617;28;20050;-86
2023/12/20 02:28:14;;;;;;;0.95;0.50;;;5.80;99.90;;;;;;4955593;28;20113;-87
2023/12/20 02:30:41;;;;;;;1.92;0.80;;;5.80;99.90;;;;;;4983006;28;20069;-87
2023/12/20 02:33:12;;;;;;;1.52;0.77;;;5.90;99.90;;;;;;4952794;28;20145;-87
2023/12/20 02:35:39;;;;;;;2.53;0.98;;;5.90;99.90;;;;;;4955661;28;20062;-87
2023/12/20 02:38:10;;;;;;;1.45;0.60;;;5.90;99.90;;;;;;4973356;28;20558;-87
2023/12/20 02:40:46;;;;;;;1.33;0.65;;;5.90;99.90;;;;;;4958940;28;20082;-88
2023/12/20 02:43:16;;;;;;;1.90;0.80;;;5.90;99.90;;;;;;4974890;28;20142;-87
2023/12/20 02:45:43;;;;;;;1.17;0.70;;;5.90;99.90;;;;;;4974621;28;20053;-87
2023/12/20 02:48:10;;;;;;;1.40;0.70;;;5.90;99.90;;;;;;4958049;28;20193;-87
2023/12/20 02:50:37;;;;;;;2.35;0.80;;;5.90;99.90;;;;;;4974240;28;20261;-87
2023/12/20 02:53:05;;;;;;;1.60;0.70;;;5.80;99.90;;;;;;4975865;28;20058;-86
2023/12/20 02:55:31;;;;;;;2.00;0.70;;;5.80;99.90;;;;;;4994618;28;20054;-86
2023/12/20 02:58:06;;;;;;;1.48;0.60;;;5.80;99.90;;;;;;4992898;28;20047;-86
2023/12/20 03:00:34;;;;;;;2.88;0.70;;;5.80;99.90;;;;;;4961362;28;20072;-86
2023/12/20 03:03:03;;;;;;;0.55;0.47;;;5.80;99.90;;;;;;4990430;28;20050;-87
2023/12/20 03:05:30;;;;;;;0.88;0.60;;;5.80;99.90;;;;;;4957502;28;20055;-86
2023/12/20 03:07:59;;;;;;;2.28;0.75;;;5.80;99.90;;;;;;4972852;28;20074;-86
2023/12/20 03:10:26;;;;;;;3.92;1.02;;;5.80;99.90;;;;;;4957628;28;20082;-87
2023/12/20 03:12:54;;;;;;;1.33;0.60;;;5.80;99.90;;;;;;4972862;28;20043;-86
2023/12/20 03:15:22;;;;;;;1.85;0.80;;;5.80;99.90;;;;;;4976425;28;20416;-87
2023/12/20 03:17:54;;;;;;;1.95;0.80;;;5.70;99.90;;;;;;4959898;28;20474;-87
2023/12/20 03:20:23;;;;;;;1.27;0.70;;;5.70;99.90;;;;;;4993265;28;20061;-85
2023/12/20 03:22:50;;;;;;;2.75;0.70;;;5.70;99.90;;;;;;4962355;28;20682;-86
2023/12/20 03:25:17;;;;;;;0.95;0.52;;;5.70;99.90;;;;;;4974510;28;20051;-87
2023/12/20 03:27:45;;;;;;;1.77;0.60;;;5.70;99.90;;;;;;4974407;28;20498;-89
2023/12/20 03:30:13;;;;;;;1.75;0.82;;;5.70;99.90;;;;;;4974455;28;20058;-88
2023/12/20 03:32:41;;;;;;;1.35;0.60;;;5.70;99.90;;;;;;4972910;28;20440;-89
2023/12/20 03:35:08;;;;;;;0.60;0.40;;;5.60;99.90;;;;;;4942556;28;20086;-86
2023/12/20 03:37:36;;;;;;;1.48;0.57;;;5.60;99.90;;;;;;4958870;28;20094;-85
2023/12/20 03:40:06;;;;;;;0.63;0.43;;;5.60;1.00;;;;;;4959051;28;20059;-87
2023/12/20 03:42:33;;;;;;;1.40;0.60;;;5.60;1.00;;;;;;4975485;28;20050;-86
2023/12/20 03:45:01;;;;;;;1.85;1.55;;;5.60;1.00;;;;;;4969156;28;20047;-87
2023/12/20 03:47:35;;;;;;;1.35;0.70;;;5.60;1.00;;;;;;4974432;28;20054;-86
2023/12/20 03:50:02;;;;;;;1.67;0.70;;;5.60;11.00;;;;;;4957226;28;20066;-86
2023/12/20 03:52:29;;;;;;;1.33;0.60;;;5.60;40.70;;;;;;4956892;28;20078;-89
2023/12/20 03:54:56;;;;;;;1.65;0.75;;;5.60;37.50;;;;;;4973061;28;20065;-87
2023/12/20 03:57:23;;;;;;;0.98;0.40;;;5.60;61.60;;;;;;4957003;28;20059;-87
2023/12/20 03:59:51;;;;;;;1.33;0.65;;;5.60;27.80;;;;;;4973885;28;20051;-87
2023/12/20 04:02:19;;;;;;;1.30;0.70;;;5.60;22.90;;;;;;4972860;28;20082;-87
2023/12/20 04:04:47;;;;;;;1.15;0.60;;;5.50;71.10;;;;;;4973068;28;20043;-88
2023/12/20 04:07:14;;;;;;;1.73;0.47;;;5.50;37.40;;;;;;4957394;28;20046;-87
2023/12/20 04:09:41;;;;;;;1.17;0.50;;;5.50;50.00;;;;;;4972938;28;20057;-87
2023/12/20 04:12:08;;;;;;;0.93;0.45;;;5.50;67.80;;;;;;4973548;28;20050;-87
2023/12/20 04:14:35;;;;;;;1.17;0.50;;;5.50;90.70;;;;;;4974237;28;20069;-88
2023/12/20 04:17:04;;;;;;;0.65;0.52;;;5.50;97.70;;;;;;4955959;28;20058;-87
2023/12/20 04:19:31;;;;;;;2.05;0.63;;;5.50;99.90;;;;;;4972999;28;20050;-88
2023/12/20 04:21:59;;;;;;;0.55;0.40;;;5.50;99.90;;;;;;4973593;28;20059;-87
2023/12/20 04:24:26;;;;;;;0.50;0.50;;;5.50;99.90;;;;;;4958532;28;20047;-88
2023/12/20 04:26:55;;;;;;;1.08;0.60;;;5.50;99.90;;;;;;4941833;28;20055;-87
2023/12/20 04:29:23;;;;;;;1.23;0.57;;;5.50;79.40;;;;;;4956251;28;20098;-91
2023/12/20 04:31:51;;;;;;;1.13;0.57;;;5.50;88.30;;;;;;4979024;28;20117;-90
2023/12/20 04:34:44;;;;;;;0.70;0.50;;;5.50;77.40;;;;;;4978239;28;20066;-89
2023/12/20 04:37:12;;;;;;;1.20;0.93;;;5.50;94.60;;;;;;4975970;28;20062;-88
2023/12/20 04:39:42;;;;;;;0.82;0.45;;;5.50;99.10;;;;;;4962864;28;20058;-92
2023/12/20 04:42:09;;;;;;;0.82;0.50;;;5.50;92.00;;;;;;4963949;28;20082;-90
2023/12/20 04:44:36;;;;;;;1.20;0.50;;;5.50;24.10;;;;;;4981310;28;20047;-88
2023/12/20 04:47:04;;;;;;;0.55;0.50;;;5.50;99.90;;;;;;4996164;28;20065;-90
2023/12/20 04:49:34;;;;;;;0.63;0.30;;;5.50;99.90;;;;;;4997038;28;20050;-87
2023/12/20 04:52:01;;;;;;;1.88;0.65;;;5.50;99.90;;;;;;4977162;28;20061;-86
2023/12/20 04:54:28;;;;;;;1.23;0.63;;;5.50;99.90;;;;;;4995008;28;20062;-87
2023/12/20 04:56:56;;;;;;;1.30;0.70;;;5.50;99.90;;;;;;4966921;28;20121;-86
2023/12/20 04:59:24;;;;;;;2.03;0.80;;;5.50;99.90;;;;;;4980475;28;20058;-87
2023/12/20 05:01:51;;;;;;;2.35;0.93;;;5.50;99.90;;;;;;4976940;28;20054;-87
2023/12/20 05:04:20;;;;;;;5.10;0.90;;;5.60;99.90;;;;;;4980985;28;20058;-86
2023/12/20 05:06:50;;;;;;;2.03;0.77;;;5.60;99.90;;;;;;4963719;28;20080;-89
2023/12/20 05:09:17;;;;;;;1.45;0.70;;;5.70;37.00;;;;;;4977239;28;20050;-88
2023/12/20 05:11:48;;;;;;;1.80;0.75;;;5.70;1.00;;;;;;4960669;28;20055;-88
2023/12/20 05:14:15;;;;;;;2.45;0.90;;;5.70;1.00;;;;;;4978298;28;20136;-89
2023/12/20 05:16:43;;;;;;;3.00;1.20;;;5.70;1.00;;;;;;4959165;28;20493;-83
2023/12/20 05:19:12;;;;;;;1.65;0.80;;;5.70;1.00;;;;;;5000725;28;20042;-89
2023/12/20 05:21:42;;;;;;;3.30;1.20;;;5.70;1.00;;;;;;4995621;28;20150;-89
2023/12/20 05:24:11;;;;;;;1.38;0.70;;;5.80;1.00;;;;;;4968699;28;20461;-89
2023/12/20 05:26:39;;;;;;;1.58;0.60;;;5.70;99.90;;;;;;4973979;28;20046;-90
2023/12/20 05:29:07;;;;;;;1.13;0.70;;;5.80;99.90;;;;;;4961336;28;20081;-90
2023/12/20 05:31:34;;;;;;;3.22;1.60;;;5.70;99.90;;;;;;4962640;28;20510;-89
2023/12/20 05:34:02;;;;;;;2.15;0.70;;;5.70;1.00;;;;;;4978752;28;20054;-88
2023/12/20 05:36:30;;;;;;;1.50;0.80;;;5.70;1.00;;;;;;4985495;28;20061;-88
2023/12/20 05:38:57;;;;;;;1.15;0.57;;;5.70;1.00;;;;;;4977798;28;20158;-85
2023/12/20 05:41:24;;;;;;;1.63;0.82;;;5.70;1.00;;;;;;4972636;28;20375;-85
2023/12/20 05:43:51;;;;;;;5.05;1.08;;;5.70;1.00;;;;;;4977862;28;20216;-86
2023/12/20 05:46:18;;;;;;;4.03;0.93;;;5.70;1.00;;;;;;4959841;28;20050;-86
2023/12/20 05:48:47;;;;;;;5.88;1.17;;;5.80;1.00;;;;;;4982809;28;20510;-85
2023/12/20 05:51:14;;;;;;;3.80;1.35;;;5.80;1.00;;;;;;4973837;28;20050;-86
2023/12/20 05:53:41;;;;;;;2.70;1.17;;;5.80;99.90;;;;;;4972659;28;20057;-86
2023/12/20 05:56:09;;;;;;;1.27;0.90;;;5.80;99.90;;;;;;4956550;28;20070;-87
2023/12/20 05:58:37;;;;;;;2.70;0.98;;;5.80;99.90;;;;;;4974591;28;20050;-88
2023/12/20 06:01:08;;;;;;;1.98;0.80;;;5.80;99.90;;;;;;4968161;28;20050;-87
2023/12/20 06:03:36;;;;;;;1.95;1.00;;;5.80;99.90;;;;;;4957776;28;20428;-86
2023/12/20 06:06:09;;;;;;;2.95;1.35;;;5.80;99.90;;;;;;4954093;28;20106;-87
2023/12/20 06:08:51;;;;;;;2.65;1.00;;;5.80;99.90;;;;;;4942844;28;20043;-87
2023/12/20 06:11:18;;;;;;;2.95;1.08;;;5.90;99.90;;;;;;4979398;28;20055;-88
2023/12/20 06:13:45;;;;;;;3.28;1.40;;;5.90;99.90;;;;;;4978639;28;20065;-88
2023/12/20 06:16:13;;;;;;;1.88;1.00;;;5.90;99.90;;;;;;4984467;28;20124;-87
2023/12/20 06:18:40;;;;;;;3.35;0.95;;;5.90;99.90;;;;;;4961191;28;20064;-87
2023/12/20 06:21:07;;;;;;;2.67;0.95;;;5.90;99.90;;;;;;4963660;28;20054;-86
2023/12/20 06:23:34;;;;;;;2.92;1.20;;;6.00;99.90;;;;;;4940458;28;20065;-86
2023/12/20 06:26:04;;;;;;;0.82;0.52;;;6.00;99.90;;;;;;4973120;28;20058;-85
2023/12/20 06:28:31;;;;;;;2.75;0.95;;;5.90;99.90;;;;;;4939101;28;20115;-87
2023/12/20 06:31:00;;;;;;;1.05;0.60;;;6.00;99.90;;;;;;4956515;28;20554;-88
2023/12/20 06:33:27;;;;;;;1.17;0.80;;;6.00;99.90;;;;;;4947050;28;20046;-88
2023/12/20 06:35:55;;;;;;;1.63;1.10;;;6.00;99.90;;;;;;4991946;28;20046;-90
2023/12/20 06:38:22;;;;;;;2.92;0.95;;;6.00;99.90;;;;;;4946483;28;20062;-88
2023/12/20 06:40:49;;;;;;;1.05;0.57;;;6.00;99.90;;;;;;4976150;28;20050;-87
2023/12/20 06:43:18;;;;;;;3.28;0.93;;;6.00;99.90;;;;;;4974134;28;20105;-88
2023/12/20 06:46:05;;;;;;;3.92;0.80;;;6.00;99.90;;;;;;4963241;28;20047;-88
2023/12/20 06:48:32;;;;;;;3.88;1.20;;;6.00;99.90;;;;;;4959061;28;20553;-88
2023/12/20 06:51:00;;;;;;;3.38;0.90;;;6.00;99.90;;;;;;4973950;28;20057;-88
2023/12/20 06:53:27;;;;;;;4.05;0.77;;;6.10;99.90;;;;;;4982381;28;20118;-87
2023/12/20 06:55:57;;;;;;;3.17;1.50;;;6.10;99.90;;;;;;4959486;28;20051;-87
2023/12/20 06:58:27;;;;;;;2.30;0.80;;;6.20;99.90;;;;;;4974063;28;20061;-86
2023/12/20 07:01:00;;;;;;;2.85;0.88;;;6.20;99.90;;;;;;4960878;28;20062;-87
2023/12/20 07:03:27;;;;;;;2.75;0.98;;;6.20;99.90;;;;;;4962665;28;20070;-87
2023/12/20 07:05:54;;;;;;;2.78;0.70;;;6.20;99.90;;;;;;4969061;28;20065;-82
2023/12/20 07:08:23;;;;;;;1.10;0.60;;;6.20;99.90;;;;;;4951760;28;20055;-88
2023/12/20 07:10:50;;;;;;;2.47;1.40;;;6.20;99.90;;;;;;4937861;28;20058;-88
2023/12/20 07:13:18;;;;;;;2.17;1.10;;;6.20;99.90;;;;;;4960864;28;20054;-89
2023/12/20 07:15:45;;;;;;;2.17;0.73;;;6.20;99.90;;;;;;4998706;28;20054;-87
2023/12/20 07:18:13;;;;;;;3.35;1.17;;;6.20;99.90;;;;;;4969907;28;20155;-90
2023/12/20 07:20:43;;;;;;;2.60;1.27;;;6.30;99.90;;;;;;4972398;28;20058;-89
2023/12/20 07:23:12;;;;;;;1.83;0.70;;;6.30;99.90;;;;;;4982873;28;20050;-91
2023/12/20 07:25:39;;;;;;;2.63;1.15;;;6.30;99.90;;;;;;4981624;28;20046;-91
2023/12/20 07:28:06;;;;;;;1.58;1.08;;;6.30;99.90;;;;;;4960952;28;20071;-90
2023/12/20 07:30:35;;;;;;;2.83;1.15;;;6.30;99.90;;;;;;4974666;28;20130;-87
2023/12/20 07:33:08;;;;;;;2.75;0.80;;;6.30;99.90;;;;;;4952626;28;20061;-87
2023/12/20 07:35:36;;;;;;;1.88;0.75;;;6.30;99.90;;;;;;4956992;28;20058;-88
2023/12/20 07:38:04;;;;;;;2.78;1.10;;;6.30;99.90;;;;;;4939657;29;20044;-89
2023/12/20 07:40:31;;;;;;;3.28;1.27;;;6.30;99.90;;;;;;4960019;28;20404;-87
2023/12/20 07:42:58;;;;;;;1.95;0.90;;;6.40;99.90;;;;;;4972886;28;20158;-86
2023/12/20 07:45:25;;;;;;;3.00;1.00;;;6.40;99.90;;;;;;4975570;28;20154;-86
2023/12/20 07:47:54;;;;;;;2.72;1.42;;;6.40;99.90;;;;;;4971080;28;20055;-86
2023/12/20 07:50:21;;;;;;;3.78;1.13;;;6.40;99.90;;;;;;4956326;28;20170;-88
2023/12/20 07:52:50;;;;;;;2.05;1.00;;;6.40;99.90;;;;;;4961524;28;20534;-84
2023/12/20 07:55:19;;;;;;;3.00;1.20;;;6.50;99.90;;;;;;4970885;28;20114;-90
2023/12/20 07:57:46;;;;;;;1.80;1.35;;;6.50;99.90;;;;;;4972020;28;20047;-83
2023/12/20 08:00:14;;;;;;;1.73;0.65;;;6.50;99.90;;;;;;4970653;28;20146;-85
2023/12/20 08:02:41;;;;;;;2.13;0.82;;;6.60;99.90;;;;;;4971708;28;20054;-85
2023/12/20 08:05:09;;;;;;;2.63;0.90;;;6.60;99.90;;;;;;4923214;29;20051;-85
2023/12/20 08:07:36;;;;;;;3.25;0.85;;;6.60;99.90;;;;;;4968328;28;20118;-84
2023/12/20 08:10:03;;;;;;;2.25;0.90;;;6.60;99.90;;;;;;4970399;28;20046;-84
2023/12/20 08:12:33;;;;;;;1.63;0.80;;;6.70;99.90;;;;;;4971089;28;20073;-83
2023/12/20 08:15:03;;;;;;;2.45;0.70;;;6.70;99.90;;;;;;4938276;28;20062;-85
2023/12/20 08:17:31;;;;;;;4.65;1.30;;;6.60;99.90;;;;;;4937512;28;20451;-83
2023/12/20 08:19:59;;;;;;;2.17;1.00;;;6.70;1.00;;;;;;4953007;28;20130;-85
2023/12/20 08:22:27;;;;;;;2.35;0.80;;;6.70;1.00;;;;;;4950356;28;20086;-85
2023/12/20 08:24:54;;;;;;;2.88;1.02;;;6.70;1.00;;;;;;4934966;28;20114;-86
2023/12/20 08:27:23;;;;;;;2.90;1.05;;;6.70;1.00;;;;;;4941046;28;20051;-85
2023/12/20 08:29:50;;;;;;;2.45;1.00;;;6.70;1.00;;;;;;4950811;28;20121;-85
2023/12/20 08:32:19;;;;;;;4.57;1.40;;;6.80;1.00;;;;;;4965096;28;20141;-86
2023/12/20 08:34:49;;;;;;;2.42;1.75;;;6.80;1.10;;;;;;4970655;28;20057;-86
2023/12/20 08:37:18;;;;;;;1.55;0.77;;;6.80;1.00;;;;;;4972854;28;20054;-86
2023/12/20 08:39:45;;;;;;;2.00;1.08;;;6.80;1.00;;;;;;4953406;28;20051;-83
2023/12/20 08:42:12;;;;;;;2.00;0.70;;;6.90;1.00;;;;;;4954058;28;20169;-85
2023/12/20 08:44:40;;;;;;;2.22;0.95;;;6.90;1.00;;;;;;4955389;28;20126;-86
2023/12/20 08:47:07;;;;;;;1.88;0.70;;;6.80;3.90;;;;;;4951954;28;20050;-84
2023/12/20 08:49:34;;;;;;;1.77;0.80;;;6.90;13.90;;;;;;4945281;28;20051;-82
2023/12/20 08:52:01;;;;;;;1.63;0.82;;;6.90;51.60;;;;;;4946680;28;20133;-81
2023/12/20 08:54:28;;;;;;;2.75;1.17;;;7.00;24.10;;;;;;4964550;28;20043;-82
2023/12/20 08:56:55;;;;;;;3.05;1.00;;;7.00;32.80;;;;;;4960904;28;20054;-80
2023/12/20 08:59:22;;;;;;;1.75;0.75;;;7.00;65.20;;;;;;4963065;28;20051;-80
2023/12/20 09:01:54;;;;;;;1.17;0.52;;;7.10;12.00;;;;;;4946501;28;20458;-80
2023/12/20 09:04:21;;;;;;;2.40;0.80;;;7.10;1.00;;;;;;4954952;28;20047;-80
2023/12/20 09:06:48;;;;;;;2.83;1.38;;;7.20;1.00;;;;;;4964161;28;20113;-82
2023/12/20 09:09:15;;;;;;;1.65;0.80;;;7.30;1.00;;;;;;4965021;28;20054;-81
2023/12/20 09:11:42;;;;;;;3.05;0.80;;;7.30;1.00;;;;;;4964738;28;20057;-81
2023/12/20 09:14:08;;;;;;;3.58;1.13;;;7.40;1.00;;;;;;4970078;28;20070;-79
2023/12/20 09:16:36;;;;;;;2.05;0.85;;;7.40;1.00;;;;;;4937678;28;20051;-80
2023/12/20 09:19:03;;;;;;;2.10;0.90;;;7.40;99.90;;;;;;4929182;29;20428;-80
2023/12/20 09:21:30;;;;;;;2.50;0.75;;;7.50;99.90;;;;;;4946629;28;20103;-80
2023/12/20 09:23:57;;;;;;;2.08;0.93;;;7.50;99.90;;;;;;4947131;28;20062;-80
2023/12/20 09:26:24;;;;;;;3.35;0.93;;;7.60;99.90;;;;;;4960834;28;20158;-81
2023/12/20 09:28:51;;;;;;;2.20;1.40;;;7.60;99.90;;;;;;4952258;28;20051;-80
2023/12/20 09:31:20;;;;;;;2.80;1.15;;;7.70;99.90;;;;;;4946748;28;20562;-81
2023/12/20 09:33:47;;;;;;;2.58;1.08;;;7.80;99.90;;;;;;4957480;28;20472;-81
2023/12/20 09:36:14;;;;;;;2.78;0.90;;;7.80;99.90;;;;;;4971034;28;20050;-81
2023/12/20 09:38:42;;;;;;;2.22;1.08;;;7.90;99.90;;;;;;4947128;28;20054;-81
2023/12/20 09:41:11;;;;;;;4.90;1.08;;;8.00;72.60;;;;;;4963774;28;20055;-80
2023/12/20 09:43:38;;;;;;;2.88;1.48;;;8.10;16.10;;;;;;4963480;28;20554;-81
2023/12/20 09:46:05;;;;;;;2.35;1.27;;;8.20;1.00;;;;;;4965619;28;20046;-81
2023/12/20 09:48:33;;;;;;;5.60;1.80;;;8.30;1.00;;;;;;4925146;28;20430;-81
2023/12/20 09:51:00;;;;;;;2.80;1.38;;;8.40;1.00;;;;;;4964207;28;20042;-81
2023/12/20 09:53:29;;;;;;;3.55;1.30;;;8.50;1.00;;;;;;4963372;28;20611;-81
2023/12/20 09:56:02;;;;;;;2.67;1.10;;;8.60;1.00;;;;;;4948385;28;20470;-82
2023/12/20 09:58:29;;;;;;;1.70;1.08;;;8.70;99.90;;;;;;4963468;28;20097;-83
2023/12/20 10:00:56;;;;;;;5.82;1.80;;;8.70;99.90;;;;;;4960902;28;20157;-82
2023/12/20 10:03:25;;;;;;;2.70;1.00;;;8.80;99.90;;;;;;4957047;28;20073;-83
2023/12/20 10:05:57;;;;;;;3.58;1.38;;;8.80;99.90;;;;;;4943440;28;20070;-82
2023/12/20 10:08:24;;;;;;;2.63;1.10;;;8.80;99.90;;;;;;4928518;28;20081;-83
2023/12/20 10:10:51;;;;;;;2.60;1.30;;;8.90;99.90;;;;;;4961626;28;20055;-82
2023/12/20 10:13:19;;;;;;;2.97;1.83;;;8.90;99.90;;;;;;4959624;28;20054;-82
2023/12/20 10:15:46;;;;;;;1.42;0.82;;;8.90;99.90;;;;;;4945217;28;20175;-83
2023/12/20 10:18:13;;;;;;;4.65;1.10;;;8.90;99.90;;;;;;4957808;28;20768;-82
2023/12/20 10:20:40;;;;;;;3.92;1.00;;;8.90;99.90;;;;;;4988499;28;20105;-84
2023/12/20 10:23:07;;;;;;;1.80;1.00;;;8.90;99.90;;;;;;4951311;28;20118;-83
2023/12/20 10:25:35;;;;;;;3.22;1.50;;;9.00;99.90;;;;;;4942088;28;20083;-86
2023/12/20 10:28:18;;;;;;;2.05;0.95;;;9.00;99.90;;;;;;4948817;28;20128;-86
2023/12/20 10:30:45;;;;;;;;;;;9.00;99.90;;;;;;4969480;28;20059;-86
2023/12/20 10:33:15;;;;;;;3.85;1.05;;;9.10;99.90;;;;;;4964749;28;19985;-85
2023/12/20 10:35:44;;;;;;;1.20;0.85;;;9.10;99.90;;;;;;4967113;28;20406;-85
2023/12/20 10:38:13;;;;;;;2.28;1.20;;;9.20;99.90;;;;;;4979369;28;20055;-88
2023/12/20 10:40:41;;;;;;;2.50;0.98;;;9.20;99.90;;;;;;4991177;28;20256;-87
2023/12/20 10:43:09;;;;;;;2.80;1.00;;;9.30;99.90;;;;;;4971004;28;20091;-84
2023/12/20 10:45:36;;;;;;;2.53;1.30;;;9.30;99.90;;;;;;4951947;28;20051;-85
2023/12/20 10:48:06;;;;;;;3.92;1.35;;;9.40;99.90;;;;;;4935929;28;20047;-84
2023/12/20 10:50:34;;;;;;;1.95;1.10;;;9.40;99.90;;;;;;4969617;28;20133;-82
2023/12/20 10:53:01;;;;;;;1.77;0.88;;;9.40;99.90;;;;;;4977541;28;20054;-85
2023/12/20 10:55:28;;;;;;;1.63;0.90;;;9.50;99.90;;;;;;4953140;28;20055;-85
2023/12/20 10:58:08;;;;;;;2.10;1.20;;;9.50;99.90;;;;;;4971708;28;20055;-85
2023/12/20 11:00:43;;;;;;;2.58;1.05;;;9.50;99.90;;;;;;4983619;28;20073;-87
2023/12/20 11:03:11;;;;;;;2.35;0.90;;;9.50;99.90;;;;;;4956771;28;20383;-85
2023/12/20 11:05:50;;;;;;;3.17;1.13;;;9.50;99.90;;;;;;4971972;28;20440;-84
2023/12/20 11:08:33;;;;;;;2.17;1.02;;;9.50;99.90;;;;;;4938730;28;20129;-87
2023/12/20 11:11:21;;;;;;;2.63;1.30;;;9.50;99.90;;;;;;4974258;28;20047;-85
2023/12/20 11:14:05;;;;;;;3.42;1.08;;;9.50;99.90;;;;;;4970326;28;20062;-86
2023/12/20 11:16:32;;;;;;;1.77;0.90;;;9.50;99.90;;;;;;4968995;28;20061;-86
2023/12/20 11:19:15;;;;;;;1.75;1.00;;;9.50;99.90;;;;;;4969806;28;20362;-88
2023/12/20 11:21:42;;;;;;;0.95;0.70;;;9.50;99.90;;;;;;4969126;28;20069;-84
2023/12/20 11:24:10;;;;;;;2.65;0.80;;;9.50;99.90;;;;;;4992147;28;20486;-83
2023/12/20 11:26:37;;;;;;;2.22;1.05;;;9.60;99.90;;;;;;4967202;28;20074;-83
2023/12/20 11:29:29;;;;;;;2.90;0.88;;;9.60;99.90;;;;;;4968545;28;20110;-82
2023/12/20 11:31:57;;;;;;;1.88;0.73;;;9.60;99.90;;;;;;4968890;28;20046;-81
2023/12/20 11:34:27;;;;;;;1.95;0.80;;;9.70;99.90;;;;;;4968083;28;20055;-83
2023/12/20 11:37:00;;;;;;;3.85;0.80;;;9.70;99.90;;;;;;4953173;28;20126;-83
2023/12/20 11:39:30;;;;;;;3.03;0.90;;;9.70;99.90;;;;;;4969646;28;20516;-85
2023/12/20 11:41:57;;;;;;;1.73;0.88;;;9.70;99.90;;;;;;4967526;28;20113;-84
2023/12/20 11:44:26;;;;;;;1.02;0.68;;;9.80;99.90;;;;;;4963079;28;20695;-85
2023/12/20 11:46:54;;;;;;;1.27;0.63;;;9.90;99.90;;;;;;4948175;28;20058;-85
2023/12/20 11:49:24;;;;;;;2.15;1.02;;;9.90;99.90;;;;;;4972280;28;20073;-85
2023/12/20 11:51:53;;;;;;;2.15;1.05;;;10.00;99.90;;;;;;4969760;28;20057;-86
2023/12/20 11:54:20;;;;;;;3.85;1.05;;;10.00;99.90;;;;;;4972292;28;20049;-85
2023/12/20 11:56:47;;;;;;;1.98;0.93;;;10.10;99.90;;;;;;4969873;28;20446;-86
2023/12/20 11:59:15;;;;;;;3.92;1.50;;;10.10;99.90;;;;;;4954553;28;20498;-83
2023/12/20 12:01:52;;;;;;;2.40;0.90;;;10.10;99.90;;;;;;4953992;28;20150;-86
2023/12/20 12:04:20;;;;;;;1.10;0.68;;;10.20;99.90;;;;;;4969563;28;20047;-83
2023/12/20 12:06:47;;;;;;;2.25;1.10;;;10.30;99.90;;;;;;4961539;28;20491;-85
2023/12/20 12:09:15;;;;;;;3.42;1.20;;;10.40;99.90;;;;;;4971072;28;20168;-88
2023/12/20 12:11:45;;;;;;;1.45;0.98;;;10.50;99.90;;;;;;4970882;28;20046;-88
2023/12/20 12:14:14;;;;;;;3.28;1.15;;;10.60;99.90;;;;;;4969884;28;20490;-88
2023/12/20 12:16:50;;;;;;;1.50;0.82;;;10.60;99.90;;;;;;4972168;28;20104;-89
2023/12/20 12:19:21;;;;;;;2.58;1.40;;;10.70;99.90;;;;;;4972354;28;20631;-86
2023/12/20 12:21:47;;;;;;;1.80;0.90;;;10.80;99.90;;;;;;4970964;28;20117;-85
2023/12/20 12:24:15;;;;;;;1.85;0.98;;;10.80;99.90;;;;;;4973826;28;20050;-87
2023/12/20 12:26:50;;;;;;;1.50;0.70;;;10.70;99.90;;;;;;4970889;28;20082;-87
2023/12/20 12:29:17;;;;;;;2.13;0.90;;;10.70;99.90;;;;;;4971819;28;20050;-86
2023/12/20 12:31:46;;;;;;;1.35;0.70;;;10.80;99.90;;;;;;4970524;28;20059;-86
2023/12/20 12:34:14;;;;;;;2.08;0.70;;;10.70;99.90;;;;;;4955289;28;20050;-84
2023/12/20 12:36:41;;;;;;;2.75;0.90;;;10.70;99.90;;;;;;4968531;28;20082;-84
2023/12/20 12:39:12;;;;;;;1.35;0.70;;;10.80;99.90;;;;;;4972084;28;20178;-86
2023/12/20 12:41:40;;;;;;;1.08;0.85;;;11.00;99.90;;;;;;4971754;28;20051;-87
2023/12/20 12:44:13;;;;;;;1.83;0.88;;;11.30;99.90;;;;;;4972078;28;20074;-87
2023/12/20 12:46:46;;;;;;;1.65;0.90;;;11.50;99.90;;;;;;4969549;28;20062;-85
2023/12/20 12:49:14;;;;;;;2.90;1.10;;;11.70;99.90;;;;;;4973731;28;20092;-86
2023/12/20 12:51:43;;;;;;;3.33;1.02;;;11.80;99.90;;;;;;4972509;28;20450;-88
2023/12/20 12:54:12;;;;;;;3.35;1.15;;;11.80;99.90;;;;;;4964497;28;20050;-93
2023/12/20 12:56:40;;;;;;;1.52;0.82;;;11.70;99.90;;;;;;4984707;28;20054;-95
2023/12/20 12:59:08;;;;;;;2.83;1.08;;;11.70;99.90;;;;;;4980066;28;20222;-87
2023/12/20 13:01:44;;;;;;;1.73;1.00;;;11.80;99.90;;;;;;4977661;28;20047;-90
2023/12/20 13:04:17;;;;;;;1.55;1.02;;;11.90;99.90;;;;;;4975064;28;20055;-90
2023/12/20 13:06:45;;;;;;;4.38;1.00;;;11.80;99.90;;;;;;4963620;28;20055;-91